• Join FlightAware (Why Join?)
  • Login
  • US Flag 
04:36PM EDT


 

Airport Tracker/Info


-or-


 

Live Flight TrackerFlight Track Log ✈ EJA831 ✈ 03-Dec-2013 ✈ KMEM - KCMH

Flight Track Log - Related Links

Times and Time Zones

All times are in EST time to prevent confusion due to time zone crossing. See the EJA831 flight status page for this flight to view local times or setup timezone preferences in your user account.

Time Position Orientation Groundspeed Altitude Reporting Facility
EST Latitude Longitude Course Direction KTS MPH feet Rate Location/Type
07:32PM 35.0333 -89.9667 180° South 176 203 1,100  Level KMEM
07:32PM 35.0000 -89.9667 180° South 200 230 3,600 3,900 Climbing KMEM
07:33PM 34.9500 -89.9333 151° Southeast 293 337 7,000 3,660 Climbing KMEM
07:35PM 34.9919 -89.7850 71° East 318 366 13,500 3,840 Climbing Memphis Center
07:36PM 35.0314 -89.6825 65° Northeast 325 374 17,400 3,060 Climbing Memphis Center
07:37PM 35.0742 -89.5722 65° Northeast 351 404 19,800 2,100 Climbing Memphis Center
07:38PM 35.1222 -89.4464 65° Northeast 396 456 21,800 2,400 Climbing Memphis Center
07:39PM 35.1800 -89.2961 65° Northeast 412 474 24,800 2,580 Climbing Memphis Center
07:40PM 35.2558 -89.1906 49° Northeast 413 475 27,200 2,220 Climbing Memphis Center
07:41PM 35.3306 -89.0808 50° Northeast 413 475 29,400 2,040 Climbing Memphis Center
07:42PM 35.4086 -88.9722 49° Northeast 418 481 31,400 1,740 Climbing Memphis Center
07:43PM 35.4842 -88.8606 50° Northeast 420 483 33,100 1,620 Climbing Memphis Center
07:44PM 35.5619 -88.7358 53° Northeast 423 487 34,800 900 Climbing Memphis Center
07:45PM 35.6375 -88.6189 51° Northeast 432 497 35,000 60 Climbing Memphis Center
07:46PM 35.7147 -88.4986 52° Northeast 445 512 35,000  Level Memphis Center
07:47PM 35.7914 -88.3842 50° Northeast 439 505 35,000  Level Memphis Center
07:48PM 35.8661 -88.2708 51° Northeast 431 496 35,000  Level Memphis Center
07:49PM 35.9406 -88.1553 51° Northeast 431 496 35,000  Level Memphis Center
07:50PM 36.0306 -88.0217 50° Northeast 432 497 35,000  Level Memphis Center
07:51PM 36.1114 -87.9078 49° Northeast 433 498 35,000  Level Memphis Center
07:52PM 36.2022 -87.8144 40° Northeast 422 486 35,000  Level Memphis Center
07:53PM 36.2936 -87.7186 40° Northeast 422 486 35,000  Level Memphis Center
07:54PM 36.3844 -87.6228 40° Northeast 423 487 35,000  Level Memphis Center
07:55PM 36.4764 -87.5264 40° Northeast 426 490 35,000  Level Memphis Center
07:56PM 36.5681 -87.4289 40° Northeast 427 491 35,000  Level Memphis Center
07:57PM 36.6597 -87.3294 41° Northeast 429 494 35,000  Level Memphis Center
07:58PM 36.7522 -87.2311 40° Northeast 430 495 35,000  Level Memphis Center
07:59PM 36.8456 -87.1319 40° Northeast 433 498 35,000  Level Memphis Center
08:01PM 36.9383 -87.0317 41° Northeast 434 499 35,000  Level Memphis Center
08:02PM 37.0469 -86.9142 41° Northeast 436 502 35,000  Level Memphis Center
08:03PM 37.1397 -86.8133 41° Northeast 436 502 35,000  Level Memphis Center
08:04PM 37.2317 -86.7142 41° Northeast 433 498 35,000  Level Memphis Center
08:05PM 37.3256 -86.6117 41° Northeast 438 504 35,000  Level Memphis Center
08:06PM 37.4186 -86.5111 41° Northeast 437 503 35,000  Level Memphis Center
08:07PM 37.5108 -86.4089 41° Northeast 437 503 35,000  Level Memphis Center
08:08PM 37.6047 -86.3047 41° Northeast 443 510 35,000  Level Memphis Center
08:09PM 37.6978 -86.2017 41° Northeast 442 509 35,000  Level Memphis Center
08:10PM 37.8114 -86.0761 41° Northeast 437 503 35,000  Level Indianapolis Center
08:11PM 37.9042 -85.9711 42° Northeast 443 510 35,000  Level Indianapolis Center
08:12PM 37.9950 -85.8697 41° Northeast 438 504 35,000  Level Indianapolis Center
08:13PM 38.1053 -85.7464 41° Northeast 440 506 35,000 -540 Level Indianapolis Center
08:14PM 38.1972 -85.6431 41° Northeast 440 506 34,000 -1,020 Descending Indianapolis Center
08:15PM 38.2861 -85.5422 42° Northeast 431 496 33,000 -1,020 Descending Indianapolis Center
08:16PM 38.3758 -85.4408 42° Northeast 430 495 32,000 -1,020 Descending Indianapolis Center
08:17PM 38.4686 -85.3350 42° Northeast 441 507 31,000 -540 Descending Indianapolis Center
08:18PM 38.5603 -85.2292 42° Northeast 444 511 31,000  Level Indianapolis Center
08:19PM 38.6636 -85.1100 42° Northeast 448 516 31,000 -240 Level Indianapolis Center
08:20PM 38.7567 -85.0031 42° Northeast 451 519 30,600 -1,320 Descending Indianapolis Center
08:21PM 38.8492 -84.8967 42° Northeast 450 518 28,300 -2,220 Descending Indianapolis Center
08:22PM 38.9344 -84.7981 42° Northeast 443 510 26,100 -2,100 Descending Indianapolis Center
08:23PM 39.0344 -84.6689 45° Northeast 429 494 24,000 -1,200 Descending Indianapolis Center
08:24PM 39.1033 -84.5447 54° Northeast 427 491 23,700 -660 Descending Indianapolis Center
08:25PM 39.1725 -84.4208 54° Northeast 428 493 22,700 -1,020 Descending Indianapolis Center
08:26PM 39.2403 -84.2975 55° Northeast 424 488 21,700 -1,260 Descending Indianapolis Center
08:27PM 39.3031 -84.1761 56° Northeast 412 474 20,200 -1,560 Descending Indianapolis Center
08:28PM 39.3528 -84.0453 64° Northeast 407 468 18,600 -1,620 Descending Indianapolis Center
08:30PM 39.4019 -83.9181 63° Northeast 400 460 16,900 -1,800 Descending Indianapolis Center
08:31PM 39.4589 -83.7672 64° Northeast 393 452 15,000 -1,800 Descending Indianapolis Center
08:31PM 39.4939 -83.6756 64° Northeast 385 443 13,800 -1,620 Descending Indianapolis Center
08:32PM 39.5056 -83.6453 63° Northeast 383 441 13,400 -1,620 Descending Indianapolis Center
08:32PM 39.5483 -83.5328 64° Northeast 365 420 11,900 -1,560 Descending Indianapolis Center
08:33PM 39.5503 -83.5275 64° Northeast 372 428 11,800 -1,440 Descending Indianapolis Center
08:34PM 39.6083 -83.4153 56° Northeast 352 405 10,300 -1,380 Descending Indianapolis Center
08:34PM 39.6042 -83.4217 230° Southwest 360 414 10,400 -300 Climbing Indianapolis Center
08:35PM 39.6644 -83.3158 53° Northeast 342 394 10,000 -420 Descending Indianapolis Center
08:35PM 39.6592 -83.3233 228° Southwest 345 397 10,000 -180 Level Indianapolis Center
08:35PM 39.7108 -83.2308 54° Northeast 343 395 9,900 -240 Descending Indianapolis Center
08:36PM 39.7125 -83.2242 72° East 340 391 9,800 -1,980 Descending Indianapolis Center
08:37PM 39.7694 -83.1228 54° Northeast 295 339 7,400 -2,100 Descending Indianapolis Center
08:37PM 39.7972 -83.0761 52° Northeast 282 325 6,600 -1,200 Descending Indianapolis Center
08:38PM 39.8072 -83.0339 73° East 287 330 6,200 -600 Descending Indianapolis Center
08:38PM 39.8233 -82.9794 69° East 284 327 6,000 -780 Descending Indianapolis Center
08:39PM 39.8386 -82.9417 62° Northeast 281 323 5,400 -1,680 Descending Indianapolis Center
08:39PM 39.8608 -82.8928 59° Northeast 278 320 4,300 -1,380 Descending Indianapolis Center
08:40PM 39.8758 -82.8542 63° Northeast 280 322 4,000 -300 Descending Indianapolis Center
08:40PM 39.8936 -82.8136 60° Northeast 242 278 4,000  Level Indianapolis Center
08:41PM 39.9083 -82.7794 61° Northeast 258 297 4,000 -420 Level Indianapolis Center
08:41PM 39.9383 -82.7606 26° Northeast 205 236 3,600 -900 Descending Indianapolis Center
08:42PM 39.9603 -82.7581 North 230 265 3,100 -1,140 Descending Indianapolis Center
08:42PM 39.9894 -82.7769 334° Northwest 190 219 2,500 -1,080 Descending Indianapolis Center
08:43PM 39.9981 -82.8092 289° West 197 227 2,000 -900 Descending Indianapolis Center
08:43PM 39.9986 -82.8356 272° West 158 182 1,600 -720 Descending Indianapolis Center
08:44PM 40.0008 -82.8514 280° West 173 199 1,300 -540 Descending Indianapolis Center
08:46PM 39.9833 -82.8833 270° West  Level FlightAware Approximate
08:53PM 39.9969 -82.8922 270° West  Level Estimated